Time;durP1;ratioP1;P1;durP2;ratioP2;P2;SDS_P1;SDS_P2;PMS_P1;PMS_P2;Temp;Humidity;BMP_temperature;BMP_pressure;BME280_temperature;BME280_humidity;BME280_pressure;Samples;Min_cycle;Max_cycle;Signal;HPM_P1;HPM_P2
2022/12/11 00:01:25;;;;;;;;;;;-1.50;99.90;;;;;;5029816;28;19928;-76
2022/12/11 00:03:50;;;;;;;;;;;-1.50;99.90;;;;;;5032638;28;19940;-75
2022/12/11 00:06:18;;;;;;;;;;;-1.50;99.90;;;;;;5039034;28;19925;-75
2022/12/11 00:08:43;;;;;;;;;;;-1.50;99.90;;;;;;5039684;28;19920;-75
2022/12/11 00:11:13;;;;;;;;;;;-1.50;99.90;;;;;;5032635;28;20290;-77
2022/12/11 00:13:39;;;;;;;;;;;-1.40;99.90;;;;;;5048949;28;20469;-75
2022/12/11 00:16:04;;;;;;;;;;;-1.40;99.90;;;;;;5049753;28;19924;-76
2022/12/11 00:18:30;;;;;;;;;;;-0.70;99.90;;;;;;5031636;28;19921;-75
2022/12/11 00:20:59;;;;;;;;;;;-1.40;99.90;;;;;;5049182;28;19924;-75
2022/12/11 00:23:24;;;;;;;;;;;-1.40;99.90;;;;;;5041999;28;19927;-79
2022/12/11 00:25:50;;;;;;;;;;;-1.40;99.90;;;;;;5044789;28;19924;-75
2022/12/11 00:28:18;;;;;;;;;;;-1.40;99.90;;;;;;5035626;28;19925;-75
2022/12/11 00:30:44;;;;;;;;;;;-1.40;99.90;;;;;;5046473;28;19928;-78
2022/12/11 00:33:10;;;;;;;;;;;-1.40;99.90;;;;;;5052491;28;20438;-76
2022/12/11 00:35:39;;;;;;;;;;;-1.40;99.90;;;;;;5053463;28;19924;-76
2022/12/11 00:38:05;;;;;;;;;;;-1.30;99.90;;;;;;5019027;28;19932;-76
2022/12/11 00:40:34;;;;;;;;;;;-1.30;99.90;;;;;;5032144;28;19921;-76
2022/12/11 00:43:00;;;;;;;;;;;-1.30;99.90;;;;;;5039966;28;19920;-76
2022/12/11 00:45:26;;;;;;;;;;;-1.20;99.90;;;;;;5053235;28;19974;-76
2022/12/11 00:47:51;;;;;;;;;;;-1.20;99.90;;;;;;5036688;28;19925;-76
2022/12/11 00:50:17;;;;;;;;;;;-1.20;99.90;;;;;;5052464;28;19925;-76
2022/12/11 00:52:42;;;;;;;;;;;-1.10;99.90;;;;;;5048271;28;19959;-76
2022/12/11 00:55:08;;;;;;;;;;;-1.10;99.90;;;;;;5034999;28;20385;-76
2022/12/11 00:57:33;;;;;;;;;;;-1.20;99.90;;;;;;5036647;28;19928;-76
2022/12/11 00:59:59;;;;;;;;;;;-1.10;99.90;;;;;;5052848;28;19929;-76
2022/12/11 01:02:24;;;;;;;;;;;-1.10;99.90;;;;;;5047492;28;19921;-79
2022/12/11 01:04:50;;;;;;;;;;;-1.10;99.90;;;;;;5052344;28;19944;-76
2022/12/11 01:07:16;;;;;;;;;;;-1.10;99.90;;;;;;5019203;28;19928;-77
2022/12/11 01:12:27;;;;;;;;;;;-1.10;99.90;;;;;;5049386;28;19925;-76
2022/12/11 01:14:53;;;;;;;;;;;-1.10;99.90;;;;;;5035243;28;19925;-77
2022/12/11 01:17:18;;;;;;;;;;;-1.00;99.90;;;;;;5015654;28;20058;-76
2022/12/11 01:19:44;;;;;;;;;;;-1.10;99.90;;;;;;5033065;28;19923;-76
2022/12/11 01:22:10;;;;;;;;;;;-1.10;99.90;;;;;;5037713;28;19932;-76
2022/12/11 01:24:36;;;;;;;;;;;-1.60;99.90;;;;;;5028461;28;20384;-76
2022/12/11 01:27:02;;;;;;;;;;;-1.00;99.90;;;;;;5016879;28;20887;-78
2022/12/11 01:29:28;;;;;;;;;;;-1.00;99.90;;;;;;5030880;28;19925;-76
2022/12/11 01:31:53;;;;;;;;;;;-1.00;99.90;;;;;;5047579;28;20082;-77
2022/12/11 01:34:19;;;;;;;;;;;-1.00;99.90;;;;;;5049013;28;19964;-76
2022/12/11 01:36:44;;;;;;;;;;;-1.00;99.90;;;;;;5017873;28;19920;-76
2022/12/11 01:39:10;;;;;;;;;;;-1.00;99.90;;;;;;5050550;28;19928;-76
2022/12/11 01:41:36;;;;;;;;;;;-0.90;99.90;;;;;;5051552;28;20043;-75
2022/12/11 01:44:06;;;;;;;;;;;-1.00;99.90;;;;;;5050671;28;19992;-76
2022/12/11 01:46:33;;;;;;;;;;;-0.90;99.90;;;;;;5035193;28;20020;-77
2022/12/11 01:48:59;;;;;;;;;;;-0.90;99.90;;;;;;5049614;28;19927;-76
2022/12/11 01:51:25;;;;;;;;;;;-0.90;99.90;;;;;;5051730;28;19921;-76
2022/12/11 01:53:53;;;;;;;;;;;-0.90;99.90;;;;;;5049953;28;19956;-76
2022/12/11 01:56:19;;;;;;;;;;;-0.90;99.90;;;;;;5037050;28;19931;-76
2022/12/11 01:58:51;;;;;;;;;;;-0.80;99.90;;;;;;5027871;28;20003;-76
2022/12/11 02:01:23;;;;;;;;;;;-0.80;99.90;;;;;;5051523;28;19928;-76
2022/12/11 02:03:49;;;;;;;;;;;-0.90;99.90;;;;;;5050604;28;19929;-77
2022/12/11 02:06:33;;;;;;;;;;;-0.70;99.90;;;;;;5022041;28;19925;-76
2022/12/11 02:08:59;;;;;;;;;;;0.00;99.90;;;;;;5047762;28;19921;-76
2022/12/11 02:11:29;;;;;;;;;;;-0.90;99.90;;;;;;5034058;28;19974;-77
2022/12/11 02:14:14;;;;;;;;;;;-0.80;99.90;;;;;;5049453;28;19921;-76
2022/12/11 02:16:47;;;;;;;;;;;-0.90;99.90;;;;;;5037214;28;20533;-76
2022/12/11 02:19:12;;;;;;;;;;;-0.80;99.90;;;;;;5046600;28;19925;-76
2022/12/11 02:21:43;;;;;;;;;;;-0.80;99.90;;;;;;5049364;28;20404;-76
2022/12/11 02:24:11;;;;;;;;;;;-0.80;99.90;;;;;;5041012;28;20270;-76
2022/12/11 02:26:54;;;;;;;;;;;-0.80;99.90;;;;;;5037201;28;20276;-77
2022/12/11 02:29:39;;;;;;;;;;;-0.80;99.90;;;;;;5021102;28;19932;-76
2022/12/11 02:32:11;;;;;;;;;;;-0.80;99.90;;;;;;5029501;28;19925;-76
2022/12/11 02:34:41;;;;;;;;;;;-0.80;99.90;;;;;;5030521;28;19921;-77
2022/12/11 02:37:08;;;;;;;;;;;-0.80;99.90;;;;;;5019092;28;20013;-76
2022/12/11 02:39:35;;;;;;;;;;;-0.80;99.90;;;;;;5036534;28;20067;-76
2022/12/11 02:42:02;;;;;;;;;;;-0.80;99.90;;;;;;5050483;28;19921;-76
2022/12/11 02:44:29;;;;;;;;;;;-0.80;99.90;;;;;;5050396;28;19927;-78
2022/12/11 02:46:55;;;;;;;;;;;-0.80;99.90;;;;;;5026719;28;19922;-76
2022/12/11 02:49:21;;;;;;;;;;;-0.90;99.90;;;;;;5030215;28;19921;-76
2022/12/11 02:51:47;;;;;;;;;;;-0.70;99.90;;;;;;5033590;28;19921;-76
2022/12/11 02:54:20;;;;;;;;;;;-0.70;99.90;;;;;;5049925;28;20251;-76
2022/12/11 02:56:49;;;;;;;;;;;-0.80;99.90;;;;;;5034171;28;20375;-76
2022/12/11 02:59:19;;;;;;;;;;;-0.80;99.90;;;;;;5049378;28;19924;-76
2022/12/11 03:01:45;;;;;;;;;;;-0.80;99.90;;;;;;5021312;28;19921;-76
2022/12/11 03:04:10;;;;;;;;;;;-0.80;99.90;;;;;;5029978;28;20285;-77
2022/12/11 03:06:38;;;;;;;;;;;-0.70;99.90;;;;;;5018938;28;19921;-76
2022/12/11 03:09:05;;;;;;;;;;;0.10;99.90;;;;;;5046954;28;19927;-76
2022/12/11 03:11:31;;;;;;;;;;;-0.70;99.90;;;;;;5046873;28;19921;-76
2022/12/11 03:13:57;;;;;;;;;;;-0.80;99.90;;;;;;5029341;28;19932;-76
2022/12/11 03:16:36;;;;;;;;;;;-0.70;99.90;;;;;;5000733;28;20347;-76
2022/12/11 03:19:20;;;;;;;;;;;-0.70;99.90;;;;;;5045318;28;19947;-76
2022/12/11 03:21:53;;;;;;;;;;;-0.70;99.90;;;;;;5047176;28;20385;-75
2022/12/11 03:24:18;;;;;;;;;;;-0.70;99.90;;;;;;5033582;28;19921;-76
2022/12/11 03:26:49;;;;;;;;;;;-0.70;99.90;;;;;;5035035;28;20350;-77
2022/12/11 03:29:16;;;;;;;;;;;-0.90;99.90;;;;;;5049346;28;19921;-76
2022/12/11 03:31:49;;;;;;;;;;;0.10;99.90;;;;;;5050187;28;20028;-75
2022/12/11 03:34:21;;;;;;;;;;;-0.70;99.90;;;;;;5036657;28;19925;-76
2022/12/11 03:36:47;;;;;;;;;;;-0.60;99.90;;;;;;5015524;28;19925;-76
2022/12/11 03:39:23;;;;;;;;;;;-0.70;99.90;;;;;;5049519;28;19920;-76
2022/12/11 03:41:49;;;;;;;;;;;-0.60;99.90;;;;;;5050209;28;20359;-80
2022/12/11 03:44:15;;;;;;;;;;;0.10;99.90;;;;;;5045223;28;19925;-76
2022/12/11 03:46:42;;;;;;;;;;;-0.70;99.90;;;;;;5036037;28;20438;-76
2022/12/11 03:49:09;;;;;;;;;;;-0.70;99.90;;;;;;5036381;28;19921;-76
2022/12/11 03:51:35;;;;;;;;;;;-0.60;99.90;;;;;;5028498;28;19921;-76
2022/12/11 03:54:01;;;;;;;;;;;-0.60;99.90;;;;;;5047846;28;20012;-76
2022/12/11 03:56:28;;;;;;;;;;;0.20;99.90;;;;;;5017564;28;20398;-76
2022/12/11 03:58:54;;;;;;;;;;;-0.60;99.90;;;;;;5025915;28;19925;-76
2022/12/11 04:01:19;;;;;;;;;;;-0.60;99.90;;;;;;5029701;28;20032;-77
2022/12/11 04:03:45;;;;;;;;;;;-0.70;99.90;;;;;;5033088;28;19928;-76
2022/12/11 04:06:10;;;;;;;;;;;-0.60;99.90;;;;;;5043356;28;19921;-77
2022/12/11 04:08:36;;;;;;;;;;;-0.50;99.90;;;;;;5044112;28;19925;-76
2022/12/11 04:15:00;;;;;;;;;;;-0.50;99.90;;;;;;5053233;28;20273;-76
2022/12/11 04:16:32;;;;;;;;;;;-0.60;99.90;;;;;;5034867;28;20406;-76
2022/12/11 04:24:25;;;;;;;;;;;-0.50;99.90;;;;;;5052494;28;20452;-77
2022/12/11 04:26:51;;;;;;;;;;;-0.70;99.90;;;;;;5037354;28;19955;-76
2022/12/11 04:29:16;;;;;;;;;;;-0.50;99.90;;;;;;5032847;28;20259;-76
2022/12/11 04:31:42;;;;;;;;;;;-0.50;99.90;;;;;;5032833;28;20274;-78
2022/12/11 04:34:08;;;;;;;;;;;-0.50;99.90;;;;;;5032656;28;20334;-75
2022/12/11 04:36:33;;;;;;;;;;;-0.50;99.90;;;;;;5019757;28;20162;-76
2022/12/11 04:38:59;;;;;;;;;;;-0.40;99.90;;;;;;5038163;28;20420;-77
2022/12/11 04:41:24;;;;;;;;;;;-0.50;99.90;;;;;;5032987;28;19931;-76
2022/12/11 04:43:50;;;;;;;;;;;-0.50;99.90;;;;;;5029927;28;19925;-77
2022/12/11 04:46:18;;;;;;;;;;;-0.50;99.90;;;;;;5003209;28;19928;-79
2022/12/11 04:48:44;;;;;;;;;;;-0.50;99.90;;;;;;5024252;28;19928;-76
2022/12/11 04:51:09;;;;;;;;;;;-0.40;99.90;;;;;;5025051;28;19925;-77
2022/12/11 04:53:35;;;;;;;;;;;-0.40;99.90;;;;;;5031921;28;19944;-77
2022/12/11 04:56:03;;;;;;;;;;;-0.40;99.90;;;;;;5032555;28;19925;-77
2022/12/11 04:58:29;;;;;;;;;;;-0.40;99.90;;;;;;5016571;28;19925;-76
2022/12/11 05:00:54;;;;;;;;;;;-0.40;99.90;;;;;;5029330;28;20441;-76
2022/12/11 05:03:20;;;;;;;;;;;-0.40;99.90;;;;;;5032051;28;19925;-76
2022/12/11 05:05:49;;;;;;;;;;;-0.40;99.90;;;;;;5032638;28;19921;-76
2022/12/11 05:08:18;;;;;;;;;;;-0.40;99.90;;;;;;5015381;28;20386;-78
2022/12/11 05:10:44;;;;;;;;;;;-0.40;99.90;;;;;;5025913;28;19957;-76
2022/12/11 05:13:09;;;;;;;;;;;-0.40;99.90;;;;;;5012352;28;19975;-76
2022/12/11 05:15:37;;;;;;;;;;;-0.30;99.90;;;;;;4979351;28;19921;-76
2022/12/11 05:18:03;;;;;;;;;;;-0.40;99.90;;;;;;4999000;28;19928;-75
2022/12/11 05:20:28;;;;;;;;;;;-0.40;99.90;;;;;;5031232;28;19929;-77
2022/12/11 05:22:54;;;;;;;;;;;-0.40;99.90;;;;;;5027268;28;19925;-76
2022/12/11 05:25:20;;;;;;;;;;;-0.40;99.90;;;;;;5019259;28;19926;-78
2022/12/11 05:27:45;;;;;;;;;;;-0.40;99.90;;;;;;4995186;28;20008;-76
2022/12/11 05:30:11;;;;;;;;;;;-0.40;99.90;;;;;;5013097;28;19972;-77
2022/12/11 05:32:36;;;;;;;;;;;-0.40;99.90;;;;;;5016634;28;19921;-75
2022/12/11 05:35:02;;;;;;;;;;;-0.30;99.90;;;;;;5032184;28;20012;-76
2022/12/11 05:37:28;;;;;;;;;;;-0.30;99.90;;;;;;5016415;28;19933;-77
2022/12/11 05:39:53;;;;;;;;;;;-0.40;99.90;;;;;;5030221;28;19933;-75
2022/12/11 05:42:19;;;;;;;;;;;-0.40;99.90;;;;;;5027619;28;19929;-76
2022/12/11 05:44:45;;;;;;;;;;;-0.30;99.90;;;;;;5042288;28;19925;-75
2022/12/11 05:47:10;;;;;;;;;;;-0.40;99.90;;;;;;5032527;28;19975;-76
2022/12/11 05:49:36;;;;;;;;;;;-0.40;99.90;;;;;;5048831;28;19924;-76
2022/12/11 05:52:01;;;;;;;;;;;-0.30;99.90;;;;;;5048806;28;20355;-75
2022/12/11 05:54:27;;;;;;;;;;;-0.30;99.90;;;;;;5015796;28;19975;-75
2022/12/11 05:56:53;;;;;;;;;;;-0.40;99.90;;;;;;5016693;28;20249;-75
2022/12/11 05:59:18;;;;;;;;;;;-0.30;99.90;;;;;;5031026;28;20331;-75
2022/12/11 06:01:44;;;;;;;;;;;-0.30;99.90;;;;;;5031385;28;20271;-75
2022/12/11 06:04:10;;;;;;;;;;;-0.40;99.90;;;;;;5013328;28;19933;-75
2022/12/11 06:06:36;;;;;;;;;;;-0.30;99.90;;;;;;5030683;28;20007;-76
2022/12/11 06:09:02;;;;;;;;;;;-0.30;99.90;;;;;;5046057;28;20461;-75
2022/12/11 06:11:29;;;;;;;;;;;-0.20;99.90;;;;;;5043618;28;19921;-75
2022/12/11 06:13:55;;;;;;;;;;;-0.30;99.90;;;;;;5032565;28;19921;-76
2022/12/11 06:16:21;;;;;;;;;;;-0.30;99.90;;;;;;5036851;28;19921;-75
2022/12/11 06:18:46;;;;;;;;;;;0.90;99.90;;;;;;5029324;28;20000;-75
2022/12/11 06:21:22;;;;;;;;;;;-0.30;99.90;;;;;;5051193;28;20007;-75
2022/12/11 06:23:49;;;;;;;;;;;-0.30;99.90;;;;;;5038516;28;20064;-76
2022/12/11 06:26:15;;;;;;;;;;;-0.30;99.90;;;;;;5026423;28;20314;-76
2022/12/11 06:28:41;;;;;;;;;;;-0.30;99.90;;;;;;5044590;28;19924;-75
2022/12/11 06:31:06;;;;;;;;;;;-0.30;99.90;;;;;;5045133;28;19925;-76
2022/12/11 06:33:32;;;;;;;;;;;-0.30;99.90;;;;;;5051706;28;19928;-75
2022/12/11 06:36:02;;;;;;;;;;;-0.30;99.90;;;;;;5050844;28;19921;-75
2022/12/11 06:38:27;;;;;;;;;;;-0.30;99.90;;;;;;5017603;28;19928;-75
2022/12/11 06:40:56;;;;;;;;;;;-0.20;99.90;;;;;;5031020;28;19921;-75
2022/12/11 06:43:23;;;;;;;;;;;0.50;99.90;;;;;;5012173;28;19928;-75
2022/12/11 06:45:48;;;;;;;;;;;-0.20;99.90;;;;;;5031744;28;19921;-75
2022/12/11 06:48:14;;;;;;;;;;;-0.20;99.90;;;;;;5014028;28;20299;-75
2022/12/11 06:50:40;;;;;;;;;;;-0.20;99.90;;;;;;5050950;28;19924;-77
2022/12/11 06:53:05;;;;;;;;;;;-0.30;99.90;;;;;;5028306;28;20370;-75
2022/12/11 06:55:33;;;;;;;;;;;-0.20;99.90;;;;;;5029172;28;20322;-75
2022/12/11 06:57:59;;;;;;;;;;;-0.20;99.90;;;;;;5019823;28;20133;-75
2022/12/11 07:00:24;;;;;;;;;;;-0.30;99.90;;;;;;5044236;28;20008;-75
2022/12/11 07:02:50;;;;;;;;;;;-0.30;99.90;;;;;;5049387;28;20337;-77
2022/12/11 07:05:15;;;;;;;;;;;-0.20;99.90;;;;;;5049981;28;19996;-75
2022/12/11 07:07:41;;;;;;;;;;;-0.20;99.90;;;;;;5025136;28;20277;-75
2022/12/11 07:10:07;;;;;;;;;;;-0.40;99.90;;;;;;5047133;28;20277;-75
2022/12/11 07:12:33;;;;;;;;;;;-0.30;99.90;;;;;;5049797;28;20404;-76
2022/12/11 07:14:58;;;;;;;;;;;-0.30;99.90;;;;;;5050247;28;19943;-75
2022/12/11 07:17:24;;;;;;;;;;;-0.30;99.90;;;;;;5033727;28;19925;-75
2022/12/11 07:19:49;;;;;;;;;;;-0.30;99.90;;;;;;5046658;28;19936;-75
2022/12/11 07:22:15;;;;;;;;;;;-0.30;99.90;;;;;;5048573;28;19921;-75
2022/12/11 07:24:40;;;;;;;;;;;-0.30;99.90;;;;;;5066533;28;19920;-75
2022/12/11 07:27:06;;;;;;;;;;;-0.30;99.90;;;;;;5033960;28;19932;-75
2022/12/11 07:29:31;;;;;;;;;;;-0.30;99.90;;;;;;5041985;28;20575;-77
2022/12/11 07:31:57;;;;;;;;;;;-0.30;99.90;;;;;;5045694;28;20245;-75
2022/12/11 07:34:22;;;;;;;;;;;-0.40;99.90;;;;;;5043442;28;19921;-75
2022/12/11 07:36:48;;;;;;;;;;;-0.30;99.90;;;;;;5029460;28;19920;-75
2022/12/11 07:39:14;;;;;;;;;;;-0.30;99.90;;;;;;5042660;28;19928;-75
2022/12/11 07:41:40;;;;;;;;;;;-0.30;99.90;;;;;;5044920;28;19921;-75
2022/12/11 07:44:06;;;;;;;;;;;-0.50;99.90;;;;;;5035874;28;19925;-77
2022/12/11 07:46:32;;;;;;;;;;;-0.30;99.90;;;;;;5012073;28;20883;-77
2022/12/11 07:48:59;;;;;;;;;;;-0.20;99.90;;;;;;5022778;28;20267;-76
2022/12/11 07:51:26;;;;;;;;;;;-0.40;99.90;;;;;;5025881;28;19971;-76
2022/12/11 07:53:53;;;;;;;;;;;-0.20;99.90;;;;;;5020555;28;20339;-78
2022/12/11 07:56:19;;;;;;;;;;;-0.20;99.90;;;;;;5014642;28;19927;-76
2022/12/11 07:58:45;;;;;;;;;;;-0.20;99.90;;;;;;4998724;28;19946;-76
2022/12/11 08:01:14;;;;;;;;;;;0.30;99.90;;;;;;5023130;28;19925;-76
2022/12/11 08:03:40;;;;;;;;;;;0.50;99.90;;;;;;5021789;28;19988;-76
2022/12/11 08:06:07;;;;;;;;;;;-0.20;99.90;;;;;;5023325;28;19925;-77
2022/12/11 08:08:32;;;;;;;;;;;-0.20;99.90;;;;;;4996967;28;19921;-75
2022/12/11 08:11:02;;;;;;;;;;;-0.20;99.90;;;;;;5025386;28;19932;-75
2022/12/11 08:13:27;;;;;;;;;;;-0.20;99.90;;;;;;5044968;28;19921;-76
2022/12/11 08:15:53;;;;;;;;;;;-0.20;99.90;;;;;;5018497;28;19932;-75
2022/12/11 08:18:19;;;;;;;;;;;-0.30;99.90;;;;;;5019489;28;19929;-75
2022/12/11 08:20:44;;;;;;;;;;;-0.20;99.90;;;;;;5043628;28;19925;-76
2022/12/11 08:23:10;;;;;;;;;;;-0.20;99.90;;;;;;5030031;28;19925;-76
2022/12/11 08:25:35;;;;;;;;;;;-0.20;99.90;;;;;;5021997;28;19925;-76
2022/12/11 08:28:01;;;;;;;;;;;-0.20;99.90;;;;;;5024259;28;20252;-77
2022/12/11 08:30:26;;;;;;;;;;;-0.20;99.90;;;;;;5046583;28;20431;-76
2022/12/11 08:32:52;;;;;;;;;;;-0.20;99.90;;;;;;5044422;28;19925;-76
2022/12/11 08:35:18;;;;;;;;;;;-0.20;99.90;;;;;;5034706;28;19932;-76
2022/12/11 08:37:43;;;;;;;;;;;-0.30;99.90;;;;;;5018539;28;19925;-77
2022/12/11 08:40:09;;;;;;;;;;;-0.30;99.90;;;;;;5033937;28;19956;-77
2022/12/11 08:42:35;;;;;;;;;;;-0.30;99.90;;;;;;5043309;28;20274;-77
2022/12/11 08:45:00;;;;;;;;;;;-0.20;99.90;;;;;;5035848;28;19925;-76
2022/12/11 08:47:26;;;;;;;;;;;-0.20;99.90;;;;;;5027337;28;19924;-76
2022/12/11 08:49:52;;;;;;;;;;;-0.20;99.90;;;;;;5037537;28;20301;-76
2022/12/11 08:52:17;;;;;;;;;;;-0.20;99.90;;;;;;5041060;28;19931;-76
2022/12/11 08:54:44;;;;;;;;;;;-0.20;99.90;;;;;;5047667;28;20291;-77
2022/12/11 08:57:10;;;;;;;;;;;-0.20;99.90;;;;;;5045216;28;20340;-78
2022/12/11 08:59:35;;;;;;;;;;;-0.20;99.90;;;;;;5059370;28;19932;-77
2022/12/11 09:02:01;;;;;;;;;;;-0.20;99.90;;;;;;5044194;28;20015;-79
2022/12/11 09:04:27;;;;;;;;;;;-0.20;99.90;;;;;;5045193;28;19925;-76
2022/12/11 09:06:52;;;;;;;;;;;-0.20;99.90;;;;;;5032422;28;19924;-76
2022/12/11 09:09:18;;;;;;;;;;;0.10;99.90;;;;;;5030724;28;19980;-76
2022/12/11 09:11:43;;;;;;;;;;;-0.20;99.90;;;;;;5049008;28;19929;-76
2022/12/11 09:14:09;;;;;;;;;;;-0.20;99.90;;;;;;5047745;28;20037;-76
2022/12/11 09:16:39;;;;;;;;;;;-0.10;99.90;;;;;;5034581;28;20470;-75
2022/12/11 09:19:06;;;;;;;;;;;-0.20;99.90;;;;;;5026473;28;20409;-76
2022/12/11 09:21:31;;;;;;;;;;;-0.20;99.90;;;;;;5048573;28;19925;-77
2022/12/11 09:23:58;;;;;;;;;;;-0.20;99.90;;;;;;5046489;28;19970;-77
2022/12/11 09:26:24;;;;;;;;;;;-0.20;99.90;;;;;;5029616;28;19990;-77
2022/12/11 09:28:52;;;;;;;;;;;0.30;99.90;;;;;;5042835;28;20414;-77
2022/12/11 09:31:19;;;;;;;;;;;-0.20;99.90;;;;;;5044656;28;20410;-76
2022/12/11 09:33:45;;;;;;;;;;;-0.20;99.90;;;;;;5047362;28;20061;-76
2022/12/11 09:36:11;;;;;;;;;;;0.00;99.90;;;;;;5040430;28;19995;-77
2022/12/11 09:38:37;;;;;;;;;;;-0.10;99.90;;;;;;5025502;28;19925;-77
2022/12/11 09:41:22;;;;;;;;;;;-0.10;99.90;;;;;;5045163;28;19932;-77
2022/12/11 09:43:58;;;;;;;;;;;-0.20;99.90;;;;;;5036445;28;19928;-76
2022/12/11 09:46:24;;;;;;;;;;;-0.10;99.90;;;;;;5036026;28;19986;-77
2022/12/11 09:48:52;;;;;;;;;;;-0.10;99.90;;;;;;5026971;28;19931;-76
2022/12/11 09:51:33;;;;;;;;;;;-0.10;99.90;;;;;;5032981;28;20010;-80
2022/12/11 09:53:59;;;;;;;;;;;-0.10;99.90;;;;;;5046504;28;20397;-76
2022/12/11 09:56:25;;;;;;;;;;;0.50;99.90;;;;;;5048266;28;19934;-76
2022/12/11 09:59:09;;;;;;;;;;;-0.10;99.90;;;;;;5064793;28;19973;-76
2022/12/11 10:01:42;;;;;;;;;;;0.00;99.90;;;;;;5063893;28;20370;-77
2022/12/11 10:04:26;;;;;;;;;;;0.00;99.90;;;;;;5056165;28;19925;-77
2022/12/11 10:07:24;;;;;;;;;;;0.00;99.90;;;;;;5051375;28;19924;-76
2022/12/11 10:09:53;;;;;;;;;;;0.00;99.90;;;;;;5001756;28;20062;-76
2022/12/11 10:12:30;;;;;;;;;;;0.00;99.90;;;;;;5046039;28;19925;-76
2022/12/11 10:15:13;;;;;;;;;;;0.00;99.90;;;;;;5046619;28;19924;-76
2022/12/11 10:17:40;;;;;;;;;;;0.00;99.90;;;;;;5037077;28;20516;-77
2022/12/11 10:20:17;;;;;;;;;;;0.00;99.90;;;;;;5068231;28;19924;-77
2022/12/11 10:22:44;;;;;;;;;;;0.00;99.90;;;;;;5054116;28;19943;-76
2022/12/11 10:25:32;;;;;;;;;;;0.00;99.90;;;;;;5044703;28;20332;-76
2022/12/11 10:27:59;;;;;;;;;;;0.00;99.90;;;;;;5008138;28;20278;-77
2022/12/11 10:30:27;;;;;;;;;;;0.10;99.90;;;;;;5067293;28;19970;-76
2022/12/11 10:33:06;;;;;;;;;;;0.10;99.90;;;;;;5046720;28;19925;-75
2022/12/11 10:35:37;;;;;;;;;;;0.10;99.90;;;;;;5038217;28;19925;-76
2022/12/11 10:38:12;;;;;;;;;;;0.10;99.90;;;;;;5013685;28;20433;-76
2022/12/11 10:40:39;;;;;;;;;;;0.10;99.90;;;;;;5067358;28;19928;-79
2022/12/11 10:43:04;;;;;;;;;;;0.10;99.90;;;;;;5066841;28;19928;-76
2022/12/11 10:45:30;;;;;;;;;;;0.20;99.90;;;;;;5041036;28;19925;-76
2022/12/11 10:48:03;;;;;;;;;;;0.10;99.90;;;;;;5036147;28;20007;-76
2022/12/11 10:50:29;;;;;;;;;;;0.20;99.90;;;;;;5059443;28;19920;-78
2022/12/11 10:52:54;;;;;;;;;;;0.20;99.90;;;;;;5049968;28;19931;-76
2022/12/11 10:55:42;;;;;;;;;;;0.20;99.90;;;;;;5049142;28;19921;-77
2022/12/11 10:58:14;;;;;;;;;;;0.20;99.90;;;;;;5029704;28;20012;-76
2022/12/11 11:00:40;;;;;;;;;;;0.30;99.90;;;;;;5045065;28;19935;-76
2022/12/11 11:03:22;;;;;;;;;;;0.30;99.90;;;;;;5046465;28;20378;-77
2022/12/11 11:05:49;;;;;;;;;;;0.30;99.90;;;;;;5067780;28;19924;-77
2022/12/11 11:08:18;;;;;;;;;;;1.20;99.90;;;;;;5051171;28;19921;-77
2022/12/11 11:10:49;;;;;;;;;;;0.30;99.90;;;;;;5056576;28;20145;-77
2022/12/11 11:13:15;;;;;;;;;;;0.30;99.90;;;;;;5045484;28;19939;-79
2022/12/11 11:15:41;;;;;;;;;;;0.30;99.90;;;;;;5030132;28;19926;-77
2022/12/11 11:18:11;;;;;;;;;;;0.40;99.90;;;;;;5026134;28;20371;-77
2022/12/11 11:20:42;;;;;;;;;;;0.40;99.90;;;;;;5065240;28;19924;-76
2022/12/11 11:23:12;;;;;;;;;;;0.40;99.90;;;;;;5045240;28;19921;-77
2022/12/11 11:25:37;;;;;;;;;;;0.40;99.90;;;;;;5038091;28;19925;-76
2022/12/11 11:28:04;;;;;;;;;;;0.40;99.90;;;;;;5030017;28;20252;-79
2022/12/11 11:30:32;;;;;;;;;;;0.50;99.90;;;;;;5045475;28;19989;-79
2022/12/11 11:33:01;;;;;;;;;;;0.40;99.90;;;;;;5044979;28;19921;-76
2022/12/11 11:35:28;;;;;;;;;;;0.50;99.90;;;;;;5045758;28;19921;-76
2022/12/11 11:38:02;;;;;;;;;;;0.40;99.90;;;;;;5023484;28;19955;-77
2022/12/11 11:40:29;;;;;;;;;;;0.40;99.90;;;;;;5038016;28;19925;-78
2022/12/11 11:42:55;;;;;;;;;;;0.40;99.90;;;;;;5044056;28;20360;-77
2022/12/11 11:45:23;;;;;;;;;;;0.80;99.90;;;;;;5046000;28;19960;-77
2022/12/11 11:47:57;;;;;;;;;;;0.50;99.90;;;;;;5029972;28;19972;-77
2022/12/11 11:50:31;;;;;;;;;;;0.50;99.90;;;;;;5044322;28;19932;-77
2022/12/11 11:53:13;;;;;;;;;;;0.50;99.90;;;;;;5044437;28;19920;-77
2022/12/11 11:55:41;;;;;;;;;;;0.50;99.90;;;;;;5046469;28;20404;-77
2022/12/11 11:58:15;;;;;;;;;;;0.50;99.90;;;;;;5029769;28;19952;-76
2022/12/11 12:00:41;;;;;;;;;;;0.50;99.90;;;;;;5046587;28;19928;-77
2022/12/11 12:03:12;;;;;;;;;;;0.70;99.90;;;;;;5053636;28;19925;-79
2022/12/11 12:05:40;;;;;;;;;;;0.50;99.90;;;;;;5048789;28;19925;-80
2022/12/11 12:08:21;;;;;;;;;;;0.50;99.90;;;;;;5050560;28;19924;-77
2022/12/11 12:10:52;;;;;;;;;;;0.50;99.90;;;;;;5046169;28;19925;-76
2022/12/11 12:13:28;;;;;;;;;;;0.40;99.90;;;;;;5064036;28;19947;-76
2022/12/11 12:15:55;;;;;;;;;;;0.60;99.90;;;;;;5066849;28;19925;-76
2022/12/11 12:18:28;;;;;;;;;;;0.50;99.90;;;;;;5049630;28;19936;-77
2022/12/11 12:21:13;;;;;;;;;;;0.40;99.90;;;;;;5065973;28;20285;-76
2022/12/11 12:23:57;;;;;;;;;;;0.60;99.90;;;;;;5061151;28;20240;-77
2022/12/11 12:26:34;;;;;;;;;;;0.70;99.90;;;;;;5035656;28;20429;-77
2022/12/11 12:29:14;;;;;;;;;;;0.60;99.90;;;;;;5067137;28;20015;-78
2022/12/11 12:31:46;;;;;;;;;;;0.60;99.90;;;;;;5053329;28;19929;-76
2022/12/11 12:34:20;;;;;;;;;;;0.60;99.90;;;;;;5040975;28;19925;-77
2022/12/11 12:36:55;;;;;;;;;;;0.60;99.90;;;;;;5023680;28;19925;-78
2022/12/11 12:39:38;;;;;;;;;;;0.60;99.90;;;;;;5059873;28;20524;-79
2022/12/11 12:42:16;;;;;;;;;;;0.60;99.90;;;;;;5070206;28;19920;-77
2022/12/11 12:44:57;;;;;;;;;;;0.30;99.90;;;;;;5064120;28;19951;-78
2022/12/11 12:47:24;;;;;;;;;;;0.60;99.90;;;;;;5033510;28;19925;-80
2022/12/11 12:49:51;;;;;;;;;;;0.60;99.90;;;;;;5047861;28;20394;-76
2022/12/11 12:52:37;;;;;;;;;;;0.70;99.90;;;;;;5049448;28;19925;-76
2022/12/11 12:55:17;;;;;;;;;;;0.60;99.90;;;;;;5050156;28;20035;-77
2022/12/11 12:57:43;;;;;;;;;;;0.60;99.90;;;;;;5033254;28;20390;-75
2022/12/11 13:00:11;;;;;;;;;;;0.50;99.90;;;;;;5049435;28;20336;-77
2022/12/11 13:02:49;;;;;;;;;;;0.70;99.90;;;;;;5048409;28;19931;-76
2022/12/11 13:05:19;;;;;;;;;;;0.60;99.90;;;;;;5049409;28;20020;-78
2022/12/11 13:07:49;;;;;;;;;;;0.50;99.90;;;;;;5021584;28;19925;-76
2022/12/11 13:10:21;;;;;;;;;;;0.60;99.90;;;;;;5032381;28;19955;-76
2022/12/11 13:12:47;;;;;;;;;;;0.60;99.90;;;;;;5047027;28;20433;-76
2022/12/11 13:15:42;;;;;;;;;;;0.50;99.90;;;;;;5049328;28;19925;-76
2022/12/11 13:18:27;;;;;;;;;;;0.60;99.90;;;;;;5016840;28;20310;-77
2022/12/11 13:20:52;;;;;;;;;;;0.70;99.90;;;;;;5049379;28;19933;-76
2022/12/11 13:23:24;;;;;;;;;;;0.30;99.90;;;;;;5047175;28;20454;-77
2022/12/11 13:25:51;;;;;;;;;;;0.50;99.90;;;;;;5049143;28;19940;-77
2022/12/11 13:28:40;;;;;;;;;;;0.60;99.90;;;;;;5033015;28;20442;-77
2022/12/11 13:31:12;;;;;;;;;;;0.60;99.90;;;;;;5038667;28;19967;-78
2022/12/11 13:33:40;;;;;;;;;;;0.60;99.90;;;;;;5049084;28;19925;-76
2022/12/11 13:36:08;;;;;;;;;;;0.60;99.90;;;;;;5031887;28;19926;-80
2022/12/11 13:38:34;;;;;;;;;;;0.40;99.90;;;;;;5040203;28;19924;-76
2022/12/11 13:41:00;;;;;;;;;;;0.30;99.90;;;;;;5052286;28;19933;-77
2022/12/11 13:43:27;;;;;;;;;;;0.30;99.90;;;;;;5051270;28;19925;-77
2022/12/11 13:45:57;;;;;;;;;;;1.60;99.90;;;;;;5033822;28;19950;-76
2022/12/11 13:48:26;;;;;;;;;;;0.60;99.90;;;;;;5035005;28;19997;-77
2022/12/11 13:50:52;;;;;;;;;;;0.20;99.90;;;;;;5051052;28;19979;-77
2022/12/11 13:53:18;;;;;;;;;;;0.60;99.90;;;;;;5032771;28;19925;-76
2022/12/11 13:55:44;;;;;;;;;;;1.40;99.90;;;;;;5052064;28;19952;-77
2022/12/11 13:58:17;;;;;;;;;;;0.60;99.90;;;;;;5035273;28;19936;-76
2022/12/11 14:00:51;;;;;;;;;;;0.60;99.90;;;;;;5034565;28;19925;-76
2022/12/11 14:03:17;;;;;;;;;;;0.50;99.90;;;;;;5050135;28;19924;-76
2022/12/11 14:05:43;;;;;;;;;;;0.50;99.90;;;;;;5051912;28;20297;-76
2022/12/11 14:08:09;;;;;;;;;;;0.10;99.90;;;;;;5034922;28;19971;-76
2022/12/11 14:10:35;;;;;;;;;;;0.90;99.90;;;;;;5038260;28;20015;-76
2022/12/11 14:13:03;;;;;;;;;;;0.50;99.90;;;;;;5034975;28;19924;-77
2022/12/11 14:15:29;;;;;;;;;;;0.90;99.90;;;;;;5050721;28;20447;-76
2022/12/11 14:17:56;;;;;;;;;;;0.50;99.90;;;;;;5029483;28;20390;-77
2022/12/11 14:20:32;;;;;;;;;;;0.50;99.90;;;;;;5050254;28;19975;-78
2022/12/11 14:23:05;;;;;;;;;;;0.80;99.90;;;;;;5042594;28;19925;-81
2022/12/11 14:25:31;;;;;;;;;;;0.50;99.90;;;;;;5037161;28;20387;-78
2022/12/11 14:27:56;;;;;;;;;;;0.00;99.90;;;;;;5033932;28;19974;-77
2022/12/11 14:30:23;;;;;;;;;;;0.50;99.90;;;;;;5051243;28;20375;-77
2022/12/11 14:32:50;;;;;;;;;;;0.50;99.90;;;;;;5050031;28;19929;-79
2022/12/11 14:35:42;;;;;;;;;;;0.10;99.90;;;;;;5044211;28;20328;-78
2022/12/11 14:38:25;;;;;;;;;;;0.40;99.90;;;;;;5012378;28;19968;-77
2022/12/11 14:40:53;;;;;;;;;;;0.50;99.90;;;;;;5013864;28;19932;-76